Time;durP1;ratioP1;P1;durP2;ratioP2;P2;SDS_P1;SDS_P2;PMS_P1;PMS_P2;Temp;Humidity;BMP_temperature;BMP_pressure;BME280_temperature;BME280_humidity;BME280_pressure;Samples;Min_cycle;Max_cycle;Signal;HPM_P1;HPM_P2
2022/11/21 00:00:38;;;;;;;4.35;1.60;;;13.00;99.90;;;;;;5018331;28;20541;-73
2022/11/21 00:03:04;;;;;;;6.70;2.20;;;13.00;99.90;;;;;;5019184;28;20389;-72
2022/11/21 00:05:31;;;;;;;5.32;1.50;;;13.00;99.90;;;;;;5024587;28;20084;-73
2022/11/21 00:07:57;;;;;;;4.10;1.35;;;13.00;99.90;;;;;;5022817;28;20033;-73
2022/11/21 00:10:25;;;;;;;4.95;1.70;;;13.00;99.90;;;;;;5020129;28;20526;-73
2022/11/21 00:12:55;;;;;;;3.97;1.25;;;13.00;99.90;;;;;;5011512;28;20034;-72
2022/11/21 00:15:21;;;;;;;4.35;1.45;;;13.00;99.90;;;;;;5022125;28;20037;-74
2022/11/21 00:17:47;;;;;;;3.95;1.60;;;13.00;99.90;;;;;;5016589;28;20386;-73
2022/11/21 00:20:12;;;;;;;4.72;1.60;;;13.00;99.90;;;;;;5016630;28;20034;-74
2022/11/21 00:22:38;;;;;;;4.10;1.83;;;13.10;99.90;;;;;;5019477;28;20037;-73
2022/11/21 00:25:05;;;;;;;5.13;1.77;;;13.00;99.90;;;;;;5035789;28;20139;-73
2022/11/21 00:27:30;;;;;;;5.40;1.67;;;13.10;99.90;;;;;;5021037;28;20175;-74
2022/11/21 00:29:56;;;;;;;5.57;1.90;;;13.10;99.90;;;;;;5018952;28;20030;-73
2022/11/21 00:32:22;;;;;;;4.13;1.85;;;13.00;99.90;;;;;;5021397;28;20034;-73
2022/11/21 00:34:49;;;;;;;4.40;1.10;;;13.00;99.90;;;;;;5018302;28;20975;-73
2022/11/21 00:37:15;;;;;;;4.93;1.23;;;13.00;99.90;;;;;;5019490;28;20088;-73
2022/11/21 00:39:41;;;;;;;5.47;1.00;;;13.10;99.90;;;;;;5005824;28;20042;-75
2022/11/21 00:42:07;;;;;;;4.50;0.80;;;13.20;99.90;;;;;;5022986;28;20034;-72
2022/11/21 00:44:33;;;;;;;4.57;1.08;;;13.30;99.90;;;;;;5018917;28;20038;-75
2022/11/21 00:46:58;;;;;;;4.03;1.10;;;13.40;99.90;;;;;;5024055;28;20385;-74
2022/11/21 00:49:25;;;;;;;4.40;1.40;;;13.40;99.90;;;;;;5021228;28;20417;-74
2022/11/21 00:51:51;;;;;;;;;;;13.50;99.90;;;;;;5018997;28;20041;-73
2022/11/21 00:54:18;;;;;;;3.15;0.80;;;13.40;99.90;;;;;;5020651;28;19959;-73
2022/11/21 00:56:43;;;;;;;5.22;1.40;;;13.40;99.90;;;;;;5016611;28;20138;-73
2022/11/21 00:59:10;;;;;;;8.80;1.50;;;13.30;99.90;;;;;;5025721;28;20141;-73
2022/11/21 01:01:36;;;;;;;7.93;2.10;;;13.30;99.90;;;;;;5011639;28;20103;-76
2022/11/21 01:04:02;;;;;;;6.43;1.58;;;13.20;99.90;;;;;;5024786;28;20038;-75
2022/11/21 01:06:28;;;;;;;5.05;1.73;;;13.20;99.90;;;;;;5020212;28;20099;-76
2022/11/21 01:08:54;;;;;;;6.85;1.45;;;13.20;99.90;;;;;;5017381;28;20139;-75
2022/11/21 01:11:20;;;;;;;4.45;1.42;;;13.20;99.90;;;;;;5019353;28;20033;-75
2022/11/21 01:13:47;;;;;;;6.07;1.55;;;13.20;99.90;;;;;;5019422;28;20042;-75
2022/11/21 01:16:22;;;;;;;5.43;1.20;;;13.10;99.90;;;;;;5020681;28;20049;-75
2022/11/21 01:18:48;;;;;;;5.95;1.10;;;13.20;99.90;;;;;;5002999;28;20038;-76
2022/11/21 01:21:21;;;;;;;4.55;1.20;;;13.20;99.90;;;;;;5034504;28;20034;-75
2022/11/21 01:23:47;;;;;;;5.10;1.42;;;13.20;99.90;;;;;;5017880;28;20060;-75
2022/11/21 01:26:18;;;;;;;4.35;1.35;;;13.20;99.90;;;;;;5020524;28;20046;-74
2022/11/21 01:28:44;;;;;;;4.22;1.27;;;13.20;99.90;;;;;;5018755;28;20045;-74
2022/11/21 01:31:22;;;;;;;4.35;1.60;;;13.20;99.90;;;;;;5022265;28;20448;-74
2022/11/21 01:33:50;;;;;;;7.78;1.48;;;13.10;99.90;;;;;;5020215;28;20034;-74
2022/11/21 01:36:20;;;;;;;6.40;1.50;;;13.10;99.90;;;;;;5012501;28;20538;-75
2022/11/21 01:38:48;;;;;;;5.18;1.35;;;13.10;99.90;;;;;;5012020;28;20664;-74
2022/11/21 01:41:20;;;;;;;4.70;0.98;;;13.10;99.90;;;;;;4990344;28;20034;-74
2022/11/21 01:43:47;;;;;;;3.53;0.90;;;13.10;99.90;;;;;;5020107;28;20468;-74
2022/11/21 01:46:15;;;;;;;3.10;0.95;;;13.10;99.90;;;;;;5021077;28;20048;-75
2022/11/21 01:49:01;;;;;;;4.00;1.00;;;13.10;99.90;;;;;;5021686;28;20085;-75
2022/11/21 01:51:38;;;;;;;7.35;1.30;;;13.00;99.90;;;;;;5019402;28;20116;-74
2022/11/21 01:54:07;;;;;;;5.40;1.38;;;13.00;99.90;;;;;;5019401;28;20076;-75
2022/11/21 01:57:13;;;;;;;4.35;1.23;;;13.00;99.90;;;;;;5019145;28;20501;-74
2022/11/21 01:59:48;;;;;;;4.68;1.50;;;13.10;99.90;;;;;;5002735;28;20515;-73
2022/11/21 02:02:19;;;;;;;8.45;2.10;;;13.10;99.90;;;;;;5020322;28;20555;-74
2022/11/21 02:04:47;;;;;;;4.53;1.80;;;13.00;99.90;;;;;;5023428;28;20111;-74
2022/11/21 02:07:15;;;;;;;7.93;2.40;;;13.00;99.90;;;;;;5018260;28;20436;-73
2022/11/21 02:09:45;;;;;;;5.45;1.70;;;13.00;99.90;;;;;;5016031;28;20034;-74
2022/11/21 02:12:32;;;;;;;8.43;2.13;;;13.00;99.90;;;;;;5015296;28;20100;-74
2022/11/21 02:14:58;;;;;;;5.57;2.05;;;13.00;99.90;;;;;;5023298;28;20030;-76
2022/11/21 02:17:31;;;;;;;4.72;1.92;;;13.00;99.90;;;;;;5033521;28;20048;-75
2022/11/21 02:20:05;;;;;;;;;;;13.00;99.90;;;;;;5020466;28;20040;-75
2022/11/21 02:23:10;;;;;;;5.85;2.03;;;13.00;99.90;;;;;;5014868;28;20381;-74
2022/11/21 02:25:38;;;;;;;4.07;1.60;;;13.00;99.90;;;;;;5016686;28;20040;-75
2022/11/21 02:28:19;;;;;;;6.32;2.00;;;13.00;99.90;;;;;;5019165;28;20037;-75
2022/11/21 02:30:45;;;;;;;4.93;1.90;;;12.90;99.90;;;;;;5020012;28;20441;-75
2022/11/21 02:33:12;;;;;;;4.53;1.10;;;13.00;99.90;;;;;;5016608;28;20033;-74
2022/11/21 02:35:38;;;;;;;6.13;1.23;;;13.00;99.90;;;;;;5017771;28;20096;-74
2022/11/21 02:38:21;;;;;;;3.95;1.10;;;13.00;99.90;;;;;;4997677;28;20064;-75
2022/11/21 02:40:57;;;;;;;5.60;1.63;;;13.10;99.90;;;;;;5020867;28;20055;-75
2022/11/21 02:43:51;;;;;;;5.15;1.25;;;13.00;99.90;;;;;;5016822;28;20107;-75
2022/11/21 02:46:17;;;;;;;4.70;1.52;;;12.90;99.90;;;;;;5014259;28;20117;-75
2022/11/21 02:48:43;;;;;;;6.93;1.73;;;13.00;99.90;;;;;;5018507;28;20098;-74
2022/11/21 02:51:09;;;;;;;7.53;1.65;;;13.00;99.90;;;;;;5031381;28;20473;-74
2022/11/21 02:53:35;;;;;;;4.45;1.70;;;13.10;99.90;;;;;;5018630;28;20050;-74
2022/11/21 02:56:01;;;;;;;6.53;1.33;;;13.10;99.90;;;;;;5019122;28;20044;-74
2022/11/21 02:58:26;;;;;;;4.78;1.20;;;13.10;99.90;;;;;;5018137;28;20045;-75
2022/11/21 03:00:53;;;;;;;3.90;1.02;;;12.90;99.90;;;;;;5020050;28;20038;-74
2022/11/21 03:03:20;;;;;;;4.10;1.00;;;12.90;99.90;;;;;;5019769;28;20128;-75
2022/11/21 03:05:45;;;;;;;4.80;1.02;;;12.90;99.90;;;;;;5017827;28;20041;-74
2022/11/21 03:08:11;;;;;;;6.00;0.80;;;12.90;99.90;;;;;;5014227;28;20121;-75
2022/11/21 03:10:37;;;;;;;3.83;0.85;;;13.00;99.90;;;;;;5017637;28;20037;-75
2022/11/21 03:13:03;;;;;;;4.43;0.90;;;13.00;99.90;;;;;;5016815;28;20030;-74
2022/11/21 03:15:33;;;;;;;4.35;1.05;;;13.10;99.90;;;;;;5019404;28;20562;-75
2022/11/21 03:18:01;;;;;;;5.00;0.77;;;13.10;99.90;;;;;;5006388;28;20048;-74
2022/11/21 03:20:28;;;;;;;5.38;0.75;;;13.10;99.90;;;;;;5020711;28;20099;-75
2022/11/21 03:22:53;;;;;;;7.25;1.00;;;13.20;99.90;;;;;;5021565;28;20073;-75
2022/11/21 03:25:20;;;;;;;6.97;1.30;;;13.20;99.90;;;;;;5019417;28;20464;-75
2022/11/21 03:27:45;;;;;;;6.43;1.00;;;13.30;99.90;;;;;;5019853;28;20306;-73
2022/11/21 03:30:12;;;;;;;4.95;0.80;;;13.30;99.90;;;;;;5024723;28;20578;-75
2022/11/21 03:32:37;;;;;;;4.78;0.80;;;13.30;99.90;;;;;;5021858;28;20033;-74
2022/11/21 03:35:04;;;;;;;4.43;0.90;;;13.30;99.90;;;;;;5031660;28;20055;-74
2022/11/21 03:37:30;;;;;;;4.97;0.90;;;13.30;99.90;;;;;;5021664;28;20036;-75
2022/11/21 03:39:56;;;;;;;4.07;0.85;;;13.30;99.90;;;;;;5020826;28;20694;-75
2022/11/21 03:42:21;;;;;;;5.15;1.13;;;13.40;99.90;;;;;;5025543;28;20056;-75
2022/11/21 03:44:47;;;;;;;3.55;0.80;;;13.40;99.90;;;;;;5019865;28;20037;-75
2022/11/21 03:47:13;;;;;;;5.13;0.70;;;13.50;99.90;;;;;;5022253;28;20133;-74
2022/11/21 03:49:40;;;;;;;5.13;0.82;;;13.40;99.90;;;;;;5020258;28;20050;-74
2022/11/21 03:52:06;;;;;;;;;;;13.40;99.90;;;;;;5020087;28;20068;-75
2022/11/21 03:54:32;;;;;;;3.50;0.70;;;13.40;99.90;;;;;;5018753;28;19987;-74
2022/11/21 03:56:57;;;;;;;2.58;0.57;;;13.50;99.90;;;;;;5021043;28;20778;-74
2022/11/21 03:59:25;;;;;;;4.30;0.73;;;13.50;99.90;;;;;;5019228;28;20044;-74
2022/11/21 04:01:50;;;;;;;6.07;0.85;;;13.40;99.90;;;;;;5017070;28;20125;-75
2022/11/21 04:04:17;;;;;;;4.38;0.65;;;13.40;99.90;;;;;;5024218;28;20120;-74
2022/11/21 04:06:43;;;;;;;4.53;1.15;;;13.30;99.90;;;;;;5020626;28;20038;-75
2022/11/21 04:09:08;;;;;;;4.38;0.65;;;13.30;99.90;;;;;;5021660;28;20046;-74
2022/11/21 04:11:34;;;;;;;4.45;0.82;;;13.30;99.90;;;;;;5019749;28;20041;-75
2022/11/21 04:14:00;;;;;;;2.75;0.65;;;13.30;99.90;;;;;;5019604;28;20054;-74
2022/11/21 04:16:27;;;;;;;6.10;0.80;;;13.30;99.90;;;;;;5021948;28;20124;-74
2022/11/21 04:18:53;;;;;;;;;;;13.30;99.90;;;;;;5018511;28;20461;-76
2022/11/21 04:21:18;;;;;;;5.32;0.70;;;13.30;99.90;;;;;;5019764;28;19917;-75
2022/11/21 04:23:44;;;;;;;5.25;0.80;;;13.20;99.90;;;;;;5022723;28;20753;-74
2022/11/21 04:26:10;;;;;;;3.67;0.68;;;13.20;99.90;;;;;;5017784;28;20465;-75
2022/11/21 04:28:36;;;;;;;5.43;0.80;;;13.20;99.90;;;;;;5017572;28;20045;-75
2022/11/21 04:31:03;;;;;;;6.32;0.80;;;13.20;99.90;;;;;;5018987;28;20098;-75
2022/11/21 04:33:29;;;;;;;5.20;0.73;;;13.20;99.90;;;;;;5022490;28;20048;-74
2022/11/21 04:35:55;;;;;;;3.90;0.82;;;13.20;99.90;;;;;;5021523;28;20034;-74
2022/11/21 04:38:20;;;;;;;5.35;1.60;;;13.10;99.90;;;;;;5023129;28;20453;-73
2022/11/21 04:40:46;;;;;;;3.35;1.38;;;13.10;99.90;;;;;;5021859;28;20509;-74
2022/11/21 04:43:12;;;;;;;4.72;0.73;;;13.10;99.90;;;;;;5021454;28;20461;-75
2022/11/21 04:45:38;;;;;;;4.63;0.60;;;13.00;99.90;;;;;;5019188;28;20112;-75
2022/11/21 04:48:04;;;;;;;3.67;0.70;;;12.90;99.90;;;;;;5021157;28;20059;-75
2022/11/21 04:50:31;;;;;;;4.32;0.85;;;12.90;99.90;;;;;;5020891;28;20623;-75
2022/11/21 04:52:57;;;;;;;3.90;0.82;;;13.00;99.90;;;;;;5022102;28;20041;-74
2022/11/21 04:55:28;;;;;;;2.72;0.63;;;13.00;99.90;;;;;;5013038;28;20037;-75
2022/11/21 04:57:54;;;;;;;4.47;0.80;;;12.90;99.90;;;;;;5021766;28;20037;-75
2022/11/21 05:00:20;;;;;;;3.45;0.80;;;13.00;99.90;;;;;;5020027;28;20121;-75
2022/11/21 05:02:46;;;;;;;3.83;1.00;;;13.00;99.90;;;;;;5021092;28;20069;-74
2022/11/21 05:05:13;;;;;;;3.53;0.70;;;13.00;99.90;;;;;;5019675;28;20472;-74
2022/11/21 05:07:39;;;;;;;3.33;0.68;;;13.00;99.90;;;;;;5020280;28;20037;-75
2022/11/21 05:10:07;;;;;;;4.95;0.70;;;13.10;99.90;;;;;;5020942;28;20064;-74
2022/11/21 05:15:18;;;;;;;5.68;0.70;;;13.10;99.90;;;;;;5023680;28;20040;-74
2022/11/21 05:17:44;;;;;;;5.85;0.70;;;13.10;99.90;;;;;;5015729;28;20041;-74
2022/11/21 05:20:11;;;;;;;3.28;0.98;;;13.10;99.90;;;;;;5034161;28;20194;-75
2022/11/21 05:22:36;;;;;;;2.10;0.52;;;13.00;99.90;;;;;;5023529;28;20073;-75
2022/11/21 05:25:03;;;;;;;5.22;0.80;;;13.00;99.90;;;;;;5023847;28;20104;-76
2022/11/21 05:27:29;;;;;;;5.43;0.70;;;13.00;99.90;;;;;;5024243;28;20037;-75
2022/11/21 05:29:55;;;;;;;4.18;1.33;;;13.00;99.90;;;;;;5023075;28;20507;-75
2022/11/21 05:32:21;;;;;;;3.22;0.70;;;13.00;99.90;;;;;;5018819;28;20026;-74
2022/11/21 05:34:47;;;;;;;5.32;0.80;;;13.00;99.90;;;;;;5021856;28;20045;-74
2022/11/21 05:37:14;;;;;;;5.80;0.90;;;13.00;99.90;;;;;;5016090;28;20103;-75
2022/11/21 05:39:40;;;;;;;2.42;0.55;;;13.10;99.90;;;;;;5020979;28;20034;-74
2022/11/21 05:42:05;;;;;;;3.22;0.50;;;13.10;99.90;;;;;;5020186;28;20049;-75
2022/11/21 05:44:31;;;;;;;2.92;0.60;;;13.10;99.90;;;;;;5005044;28;20041;-75
2022/11/21 05:46:58;;;;;;;3.63;0.70;;;13.20;99.90;;;;;;5017423;28;20524;-74
2022/11/21 05:49:24;;;;;;;3.90;0.60;;;13.20;99.90;;;;;;5022386;28;20041;-75
2022/11/21 05:51:50;;;;;;;4.00;0.70;;;13.20;99.90;;;;;;5022669;28;20029;-75
2022/11/21 05:54:16;;;;;;;3.40;0.70;;;13.20;99.90;;;;;;5020619;28;20033;-75
2022/11/21 05:56:42;;;;;;;6.55;0.80;;;13.20;99.90;;;;;;5020756;28;20041;-75
2022/11/21 05:59:11;;;;;;;4.63;0.63;;;13.20;99.90;;;;;;5022001;28;20579;-75
2022/11/21 06:04:21;;;;;;;7.65;0.93;;;13.20;99.90;;;;;;5019946;28;20040;-74
2022/11/21 06:06:47;;;;;;;4.75;0.80;;;13.30;99.90;;;;;;5019514;28;20041;-74
2022/11/21 06:09:13;;;;;;;4.75;0.63;;;13.20;99.90;;;;;;5017712;28;20046;-76
2022/11/21 06:11:39;;;;;;;6.85;1.15;;;13.20;99.90;;;;;;5018275;28;20042;-74
2022/11/21 06:14:04;;;;;;;4.88;0.68;;;13.20;99.90;;;;;;5022215;28;20041;-76
2022/11/21 06:16:30;;;;;;;4.20;0.90;;;13.20;99.90;;;;;;5017199;28;20212;-75
2022/11/21 06:18:58;;;;;;;4.80;0.80;;;13.20;99.90;;;;;;5018100;28;20672;-75
2022/11/21 06:21:27;;;;;;;4.03;1.02;;;13.20;99.90;;;;;;5021330;28;20097;-75
2022/11/21 06:23:55;;;;;;;3.38;0.82;;;13.20;99.90;;;;;;5019523;28;20044;-75
2022/11/21 06:26:23;;;;;;;5.07;0.70;;;13.20;99.90;;;;;;5018758;28;20034;-75
2022/11/21 06:28:50;;;;;;;5.15;0.95;;;13.30;99.90;;;;;;5016903;28;20095;-75
2022/11/21 06:31:22;;;;;;;5.53;0.90;;;13.30;99.90;;;;;;5012742;28;20034;-74
2022/11/21 06:33:55;;;;;;;4.63;1.30;;;13.30;99.90;;;;;;5014387;28;20536;-76
2022/11/21 06:36:21;;;;;;;3.42;0.68;;;13.30;99.90;;;;;;5018554;28;20037;-77
2022/11/21 06:38:47;;;;;;;4.18;0.70;;;13.30;99.90;;;;;;5017524;28;20043;-72
2022/11/21 06:41:18;;;;;;;4.65;0.82;;;13.30;99.90;;;;;;5010606;28;20500;-73
2022/11/21 06:43:45;;;;;;;4.72;0.80;;;13.30;99.90;;;;;;5016274;28;20048;-72
2022/11/21 06:46:12;;;;;;;6.68;0.98;;;13.30;99.90;;;;;;5001735;28;20119;-73
2022/11/21 06:48:38;;;;;;;2.42;0.60;;;13.30;99.90;;;;;;5016756;28;20045;-72
2022/11/21 06:51:05;;;;;;;6.20;1.02;;;13.40;99.90;;;;;;5039136;28;20128;-72
2022/11/21 06:53:33;;;;;;;4.57;0.85;;;13.40;99.90;;;;;;5018945;28;20065;-73
2022/11/21 06:55:59;;;;;;;3.17;0.80;;;13.50;99.90;;;;;;5022284;28;20045;-72
2022/11/21 06:58:25;;;;;;;7.60;1.10;;;13.50;99.90;;;;;;5021199;28;20395;-73
2022/11/21 07:00:51;;;;;;;5.53;1.33;;;13.50;99.90;;;;;;5020596;28;20041;-73
2022/11/21 07:03:17;;;;;;;3.03;0.68;;;13.60;99.90;;;;;;5021664;28;20068;-74
2022/11/21 07:05:43;;;;;;;3.92;0.95;;;13.70;99.90;;;;;;5025085;28;20879;-73
2022/11/21 07:08:08;;;;;;;5.10;0.90;;;13.70;99.90;;;;;;5020252;28;20688;-73
2022/11/21 07:10:34;;;;;;;5.00;1.30;;;13.70;99.90;;;;;;5024331;28;21130;-73
2022/11/21 07:15:46;;;;;;;6.00;1.35;;;13.70;99.90;;;;;;5021799;28;20507;-73
2022/11/21 07:18:13;;;;;;;6.05;1.10;;;13.70;99.90;;;;;;5019656;28;20417;-73
2022/11/21 07:20:39;;;;;;;4.10;0.95;;;13.70;99.90;;;;;;5021791;28;20130;-72
2022/11/21 07:23:06;;;;;;;5.78;0.95;;;13.80;99.90;;;;;;5000309;28;20077;-72
2022/11/21 07:25:32;;;;;;;5.93;0.80;;;13.90;99.90;;;;;;5019015;28;20041;-73
2022/11/21 07:28:02;;;;;;;4.43;1.10;;;14.00;99.90;;;;;;5017746;28;20034;-71
2022/11/21 07:30:29;;;;;;;4.75;0.90;;;14.00;99.90;;;;;;5023908;28;20040;-71
2022/11/21 07:32:59;;;;;;;3.47;0.82;;;14.10;99.90;;;;;;5018470;28;20427;-72
2022/11/21 07:35:26;;;;;;;3.42;0.65;;;14.10;99.90;;;;;;5020102;28;20108;-72
2022/11/21 07:37:52;;;;;;;5.70;0.88;;;14.20;99.90;;;;;;5021143;28;20040;-73
2022/11/21 07:40:19;;;;;;;3.97;0.80;;;14.20;99.90;;;;;;5005848;28;20038;-73
2022/11/21 07:42:45;;;;;;;3.00;0.52;;;14.10;99.90;;;;;;5020696;28;20433;-73
2022/11/21 07:45:13;;;;;;;5.05;0.88;;;14.20;99.90;;;;;;5018871;28;20037;-72
2022/11/21 07:47:39;;;;;;;3.45;0.60;;;14.10;99.90;;;;;;5019494;28;20123;-73
2022/11/21 07:50:06;;;;;;;3.53;0.82;;;14.20;99.90;;;;;;5016950;28;20594;-72
2022/11/21 07:52:33;;;;;;;4.93;1.13;;;14.20;99.90;;;;;;5019986;28;20381;-73
2022/11/21 07:55:01;;;;;;;4.40;1.00;;;14.20;99.90;;;;;;5020179;28;20029;-73
2022/11/21 07:57:29;;;;;;;6.47;1.25;;;14.20;99.90;;;;;;5022394;28;20061;-72
2022/11/21 07:59:55;;;;;;;7.07;0.90;;;14.20;99.90;;;;;;5020300;28;20042;-74
2022/11/21 08:02:27;;;;;;;6.22;1.30;;;14.10;99.90;;;;;;5022125;28;20393;-73
2022/11/21 08:04:54;;;;;;;5.50;0.80;;;14.20;99.90;;;;;;5028079;28;20038;-72
2022/11/21 08:07:21;;;;;;;4.95;0.88;;;14.20;99.90;;;;;;5022249;28;20092;-73
2022/11/21 08:09:47;;;;;;;4.32;1.15;;;14.20;99.90;;;;;;5019829;28;20120;-73
2022/11/21 08:12:14;;;;;;;5.47;0.98;;;14.20;99.90;;;;;;5018876;28;20046;-73
2022/11/21 08:14:41;;;;;;;6.97;1.45;;;14.20;99.90;;;;;;5004923;28;20056;-74
2022/11/21 08:17:07;;;;;;;7.25;0.80;;;14.20;99.90;;;;;;5022954;28;20053;-73
2022/11/21 08:19:34;;;;;;;7.53;1.08;;;14.20;99.90;;;;;;5015567;28;20044;-74
2022/11/21 08:22:00;;;;;;;3.13;0.60;;;14.30;99.90;;;;;;5024386;28;20049;-73
2022/11/21 08:24:27;;;;;;;5.60;0.77;;;14.30;99.90;;;;;;5022316;28;20033;-73
2022/11/21 08:26:53;;;;;;;4.13;0.80;;;14.40;99.90;;;;;;5025635;28;20069;-74
2022/11/21 08:29:19;;;;;;;7.20;1.00;;;14.40;99.90;;;;;;5021769;28;20045;-73
2022/11/21 08:31:45;;;;;;;3.20;0.75;;;14.40;99.90;;;;;;5020426;28;20060;-73
2022/11/21 08:34:11;;;;;;;4.93;0.93;;;14.50;99.90;;;;;;5019298;28;20053;-72
2022/11/21 08:36:37;;;;;;;5.80;1.00;;;14.50;99.90;;;;;;5010248;28;20041;-73
2022/11/21 08:39:04;;;;;;;7.88;0.93;;;14.60;99.90;;;;;;4991273;28;20029;-73
2022/11/21 08:44:15;;;;;;;5.70;1.00;;;14.40;99.90;;;;;;5021135;28;20075;-73
2022/11/21 08:46:41;;;;;;;;;;;14.30;99.90;;;;;;5013087;28;20093;-73
2022/11/21 08:49:07;;;;;;;7.15;1.30;;;14.20;99.90;;;;;;5017418;28;19944;-73
2022/11/21 08:51:36;;;;;;;4.28;0.95;;;14.10;99.90;;;;;;5019286;28;20042;-72
2022/11/21 08:54:03;;;;;;;4.82;1.40;;;14.00;99.90;;;;;;5009214;28;20056;-72
2022/11/21 08:56:29;;;;;;;;;;;13.90;99.90;;;;;;5013310;28;20045;-71
2022/11/21 08:58:55;;;;;;;6.40;1.02;;;13.70;99.90;;;;;;5035656;28;19917;-72
2022/11/21 09:01:21;;;;;;;8.80;1.30;;;13.60;99.90;;;;;;5016069;28;20042;-72
2022/11/21 09:03:48;;;;;;;4.95;1.50;;;13.50;99.90;;;;;;5012189;28;20120;-71
2022/11/21 09:06:14;;;;;;;4.13;1.10;;;13.40;99.90;;;;;;5027687;28;20415;-75
2022/11/21 09:08:40;;;;;;;6.82;2.47;;;13.50;99.90;;;;;;5035585;28;20042;-73
2022/11/21 09:11:09;;;;;;;4.30;0.98;;;13.60;99.90;;;;;;5015665;28;20135;-73
2022/11/21 09:13:35;;;;;;;3.85;0.80;;;13.70;99.90;;;;;;5017786;28;20112;-72
2022/11/21 09:18:50;;;;;;;4.65;1.05;;;14.00;99.90;;;;;;5017901;28;20091;-73
2022/11/21 09:21:17;;;;;;;8.93;1.92;;;14.20;99.90;;;;;;5018283;28;20037;-73
2022/11/21 09:23:43;;;;;;;5.30;1.20;;;14.30;99.90;;;;;;5018031;28;20044;-73
2022/11/21 09:26:09;;;;;;;4.70;1.00;;;14.30;99.90;;;;;;5030752;28;20078;-73
2022/11/21 09:28:36;;;;;;;6.43;2.05;;;14.30;99.90;;;;;;5019788;28;20067;-75
2022/11/21 09:31:03;;;;;;;5.07;1.05;;;14.40;99.90;;;;;;5007678;28;20039;-72
2022/11/21 09:33:29;;;;;;;4.45;1.25;;;14.30;99.90;;;;;;5012666;28;20048;-74
2022/11/21 09:35:58;;;;;;;7.25;1.23;;;14.30;99.90;;;;;;5023763;28;20428;-73
2022/11/21 09:38:25;;;;;;;5.82;1.15;;;14.20;99.90;;;;;;5018210;28;20034;-74
2022/11/21 09:41:50;;;;;;;4.50;0.90;;;14.10;99.90;;;;;;5016972;28;20044;-72
2022/11/21 09:44:24;;;;;;;2.83;0.80;;;14.10;99.90;;;;;;5002181;28;20044;-72
2022/11/21 09:46:56;;;;;;;3.45;1.00;;;13.90;99.90;;;;;;5004161;28;20488;-73
2022/11/21 09:49:24;;;;;;;2.80;0.90;;;14.20;99.90;;;;;;5017805;28;21427;-74
2022/11/21 09:51:53;;;;;;;7.22;1.52;;;14.40;99.90;;;;;;5006655;28;20042;-77
2022/11/21 09:54:33;;;;;;;4.25;1.15;;;14.60;99.90;;;;;;5010219;28;20125;-74
2022/11/21 09:56:59;;;;;;;4.55;1.60;;;14.70;99.90;;;;;;5016752;28;20440;-75
2022/11/21 09:59:33;;;;;;;8.93;1.52;;;14.80;99.90;;;;;;5015480;28;20045;-76
2022/11/21 10:01:59;;;;;;;4.25;1.10;;;14.90;99.90;;;;;;5018212;28;20444;-75
2022/11/21 10:04:25;;;;;;;6.60;1.40;;;14.80;99.90;;;;;;4999006;28;20041;-75
2022/11/21 10:07:02;;;;;;;;;;;14.70;99.90;;;;;;4998766;28;20057;-76
2022/11/21 10:10:07;;;;;;;7.88;1.30;;;14.70;99.90;;;;;;5019968;28;19952;-76
2022/11/21 10:12:45;;;;;;;4.40;0.80;;;14.70;99.90;;;;;;5023478;28;20049;-76
2022/11/21 10:15:39;;;;;;;6.88;1.40;;;14.70;99.90;;;;;;5018574;28;20084;-76
2022/11/21 10:18:42;;;;;;;7.53;1.20;;;14.70;99.90;;;;;;5022402;28;20038;-75
2022/11/21 10:21:23;;;;;;;9.15;1.67;;;14.80;99.90;;;;;;5013709;28;20123;-75
2022/11/21 10:24:13;;;;;;;8.93;1.85;;;14.80;99.90;;;;;;5019607;28;20122;-76
2022/11/21 10:26:45;;;;;;;7.97;1.30;;;14.80;99.90;;;;;;5015333;28;20038;-74
2022/11/21 10:29:18;;;;;;;6.05;1.50;;;14.90;99.90;;;;;;5015222;28;20126;-76
2022/11/21 10:31:45;;;;;;;5.13;1.38;;;14.90;99.90;;;;;;5013129;28;20041;-76
2022/11/21 10:34:24;;;;;;;5.53;1.10;;;15.00;99.90;;;;;;5008211;28;20078;-75
2022/11/21 10:36:54;;;;;;;13.63;1.50;;;15.10;99.90;;;;;;5014870;28;20585;-74
2022/11/21 10:39:24;;;;;;;5.70;0.98;;;15.00;99.90;;;;;;5002387;28;20060;-76
2022/11/21 10:42:19;;;;;;;7.20;1.20;;;15.00;99.90;;;;;;5033550;28;20053;-73
2022/11/21 10:47:36;;;;;;;5.72;1.92;;;15.10;99.90;;;;;;5014413;28;20479;-72
2022/11/21 10:50:08;;;;;;;6.00;0.90;;;15.30;99.90;;;;;;5015478;28;20041;-73
2022/11/21 10:52:39;;;;;;;3.60;0.90;;;15.40;99.90;;;;;;5013401;28;20481;-74
2022/11/21 10:55:12;;;;;;;3.40;1.00;;;15.50;99.90;;;;;;5011296;28;20038;-75
2022/11/21 10:57:49;;;;;;;4.53;1.48;;;15.50;99.90;;;;;;5019191;28;20365;-75
2022/11/21 11:00:23;;;;;;;5.20;1.10;;;15.50;99.90;;;;;;5016425;28;20041;-75
2022/11/21 11:02:56;;;;;;;4.20;1.10;;;15.60;99.90;;;;;;5016425;28;20040;-75
2022/11/21 11:05:24;;;;;;;4.00;1.38;;;15.70;99.90;;;;;;5015876;28;20044;-75
2022/11/21 11:08:09;;;;;;;8.13;1.50;;;15.90;99.90;;;;;;5018725;28;20046;-76
2022/11/21 11:10:45;;;;;;;;;;;16.00;99.90;;;;;;5021016;28;20034;-74
2022/11/21 11:16:11;;;;;;;9.88;1.30;;;15.90;99.90;;;;;;5014186;28;20168;-75
2022/11/21 11:18:40;;;;;;;4.18;1.13;;;16.00;99.90;;;;;;5017646;28;20554;-75
2022/11/21 11:21:15;;;;;;;8.25;1.25;;;15.90;99.90;;;;;;5012915;28;20488;-76
2022/11/21 11:23:41;;;;;;;7.47;1.20;;;16.10;99.90;;;;;;5019256;28;20057;-75
2022/11/21 11:26:22;;;;;;;4.25;0.80;;;16.10;99.90;;;;;;5018164;28;20056;-75
2022/11/21 11:28:50;;;;;;;5.88;1.67;;;16.00;99.90;;;;;;5016752;28;20492;-75
2022/11/21 11:31:16;;;;;;;4.20;1.20;;;16.00;99.90;;;;;;5016163;28;20512;-75
2022/11/21 11:33:52;;;;;;;6.88;1.35;;;16.10;99.90;;;;;;5012211;28;20038;-75
2022/11/21 11:36:35;;;;;;;4.70;1.10;;;16.30;99.90;;;;;;5014280;28;20048;-77
2022/11/21 11:39:13;;;;;;;9.48;1.20;;;16.20;99.90;;;;;;5024608;28;20087;-76
2022/11/21 11:48:02;;;;;;;6.90;1.55;;;16.20;99.90;;;;;;5016641;28;20137;-75
2022/11/21 11:50:36;;;;;;;5.93;1.25;;;16.20;99.90;;;;;;5015195;28;20045;-75
2022/11/21 11:53:20;;;;;;;5.82;1.30;;;16.30;99.90;;;;;;5017321;28;20037;-76
2022/11/21 11:56:05;;;;;;;5.65;1.13;;;16.10;99.90;;;;;;5016866;28;20040;-75
2022/11/21 11:58:44;;;;;;;8.18;1.20;;;16.10;99.90;;;;;;5015872;28;20033;-74
2022/11/21 12:01:16;;;;;;;;;;;15.80;99.90;;;;;;5017599;28;20041;-75
2022/11/21 12:03:44;;;;;;;3.97;1.10;;;15.80;99.90;;;;;;5020941;28;20304;-75
2022/11/21 12:06:24;;;;;;;4.97;1.40;;;15.90;99.90;;;;;;5031798;28;20035;-75
2022/11/21 12:09:00;;;;;;;5.10;1.40;;;15.90;99.90;;;;;;5016821;28;20041;-76
2022/11/21 12:12:06;;;;;;;7.43;1.67;;;16.00;99.90;;;;;;5016564;28;20067;-76
2022/11/21 12:18:20;;;;;;;4.88;1.20;;;15.70;99.90;;;;;;5017561;28;20048;-73
2022/11/21 12:21:01;;;;;;;5.15;1.40;;;15.70;99.90;;;;;;5017041;28;20453;-76
2022/11/21 12:23:56;;;;;;;7.18;1.73;;;15.80;99.90;;;;;;4994360;28;20037;-75
2022/11/21 12:26:46;;;;;;;5.63;1.33;;;15.80;99.90;;;;;;5014648;28;21406;-75
2022/11/21 12:29:37;;;;;;;7.00;1.67;;;15.80;99.90;;;;;;5018798;28;20183;-74
2022/11/21 12:32:18;;;;;;;7.18;1.40;;;15.80;99.90;;;;;;5024263;28;20044;-78
2022/11/21 12:34:58;;;;;;;4.20;1.27;;;15.90;99.90;;;;;;5023196;28;20137;-75
2022/11/21 12:37:55;;;;;;;4.78;1.45;;;16.00;99.90;;;;;;5017194;28;20128;-75
2022/11/21 12:40:23;;;;;;;;;;;15.90;99.90;;;;;;5027483;28;20034;-76
2022/11/21 12:43:16;;;;;;;4.15;1.23;;;16.20;99.90;;;;;;5022297;28;19921;-74
2022/11/21 12:46:05;;;;;;;4.50;1.30;;;16.20;99.90;;;;;;5016887;28;20045;-76
2022/11/21 12:54:39;;;;;;;7.60;1.73;;;15.90;99.90;;;;;;5022711;28;20079;-75
2022/11/21 12:57:16;;;;;;;4.88;1.50;;;16.00;99.90;;;;;;5020580;28;20102;-74
2022/11/21 13:00:00;;;;;;;5.93;1.52;;;16.00;99.90;;;;;;5024405;28;20468;-75
2022/11/21 13:02:47;;;;;;;11.15;2.10;;;15.90;99.90;;;;;;5015812;28;20041;-75
2022/11/21 13:05:20;;;;;;;7.40;1.85;;;15.80;99.90;;;;;;5019856;28;20041;-74
2022/11/21 13:07:46;;;;;;;;;;;15.90;99.90;;;;;;5013638;28;20033;-76
2022/11/21 13:10:14;;;;;;;7.35;1.85;;;15.90;99.90;;;;;;5020093;28;19920;-76
2022/11/21 13:13:01;;;;;;;5.20;1.70;;;15.90;99.90;;;;;;5004593;28;20049;-75
2022/11/21 13:15:42;;;;;;;6.60;1.77;;;15.90;99.90;;;;;;5017388;28;20098;-76
2022/11/21 13:18:32;;;;;;;5.20;1.70;;;15.90;99.90;;;;;;5030340;28;20116;-75
2022/11/21 13:20:58;;;;;;;9.23;2.08;;;15.90;99.90;;;;;;5022493;28;20045;-75
2022/11/21 13:23:41;;;;;;;4.85;1.60;;;15.90;99.90;;;;;;5018869;28;20041;-74
2022/11/21 13:26:28;;;;;;;6.80;1.92;;;15.90;99.90;;;;;;5019872;28;20065;-75
2022/11/21 13:29:13;;;;;;;8.45;1.50;;;16.00;99.90;;;;;;5018497;28;20137;-76
2022/11/21 13:31:40;;;;;;;6.32;1.92;;;15.90;99.90;;;;;;5018709;28;20060;-75
2022/11/21 13:34:31;;;;;;;7.03;1.60;;;15.90;99.90;;;;;;5021400;28;20631;-75
2022/11/21 13:36:57;;;;;;;11.25;1.50;;;16.00;99.90;;;;;;5032014;28;20037;-75
2022/11/21 13:39:33;;;;;;;7.93;1.90;;;15.90;99.90;;;;;;5018339;28;20354;-75
2022/11/21 13:44:48;;;;;;;5.57;1.80;;;15.90;99.90;;;;;;5018612;28;20192;-75